• Join FlightAware (Why Join?)
  • Login
  • US Flag 
08:09AM EST


 

Airport Tracker/Info


-or-


 

Live Flight TrackerFlight Track Log ✈ N5FT ✈ 10-Jul-2013 ✈ KHOU - KHQZ

Flight Track Log - Related Links

Times and Time Zones

All times are in EDT time to prevent confusion due to time zone crossing. See the N5FT flight status page for this flight to view local times or setup timezone preferences in your user account.

Time Position Orientation Groundspeed Altitude Reporting Facility
EDT Latitude Longitude Course Direction KTS MPH feet Rate Location/Type
04:08PM 29.6411 -95.2836 226° Southwest 105 121 700  Level Houston Center
04:09PM 29.6183 -95.3103 226° Southwest 86 99 2,000 960 Climbing Houston Center
04:10PM 29.6086 -95.3253 233° Southwest 92 106 2,600 600 Climbing Houston Center
04:11PM 29.6008 -95.3611 256° West 114 131 3,000 180 Climbing Houston Center
04:12PM 29.5944 -95.4056 261° West 132 152 3,000  Level Houston Center
04:13PM 29.5942 -95.4511 270° West 140 161 3,000 240 Level Houston Center
04:14PM 29.5947 -95.5072 271° West 144 166 3,500 720 Climbing Houston Center
04:15PM 29.5944 -95.5461 270° West 136 157 4,500 720 Climbing Houston Center
04:16PM 29.5914 -95.5853 265° West 128 147 5,000 240 Climbing Houston Center
04:17PM 29.5903 -95.6333 268° West 137 158 5,000  Level Houston Center
04:18PM 29.5881 -95.6864 267° West 155 178 5,000  Level Houston Center
04:19PM 29.5897 -95.7369 272° West 159 183 5,000  Level Houston Center
04:20PM 29.6475 -95.7431 355° North 168 193 5,000  Level Houston Center
04:21PM 29.6928 -95.7500 352° North 165 190 5,000  Level Houston Center
04:22PM 29.7378 -95.7572 352° North 163 188 5,000  Level Houston Center
04:23PM 29.7897 -95.7639 354° North 162 186 5,000  Level Houston Center
04:24PM 29.8281 -95.7711 351° North 163 188 5,000  Level Houston Center
04:25PM 29.8717 -95.7775 353° North 160 184 5,000  Level Houston Center
04:26PM 29.9236 -95.7836 354° North 157 181 5,000  Level Houston Center
04:27PM 29.9656 -95.7892 353° North 154 177 5,000  Level Houston Center
04:28PM 30.0108 -95.7983 350° North 156 180 5,000  Level Houston Center
04:29PM 30.0511 -95.8039 353° North 155 178 5,000  Level Houston Center
04:30PM 30.0933 -95.8103 353° North 154 177 5,100 480 Climbing Houston Center
04:31PM 30.1308 -95.8175 351° North 138 159 6,100 1,200 Climbing Houston Center
04:32PM 30.1686 -95.8258 349° North 125 144 7,500 900 Climbing Houston Center
04:34PM 30.2064 -95.8269 359° North 124 143 8,000 240 Climbing Houston Center
04:35PM 30.2464 -95.8333 352° North 141 162 8,100  Climbing Houston Center
04:35PM 30.2875 -95.8411 351° North 161 185 8,000 -60 Descending Houston Center
04:36PM 30.3364 -95.8475 354° North 162 186 8,000  Level Houston Center
04:38PM 30.3803 -95.8525 354° North 160 184 8,000  Level Houston Center
04:39PM 30.4300 -95.8608 352° North 159 183 8,000  Level Houston Center
04:40PM 30.4725 -95.8681 352° North 161 185 8,000  Level Houston Center
04:41PM 30.5150 -95.8753 352° North 158 182 8,000  Level Houston Center
04:42PM 30.5594 -95.8797 355° North 159 183 8,000  Level Houston Center
04:43PM 30.6044 -95.8892 350° North 157 181 8,000  Level Houston Center
04:44PM 30.6489 -95.8936 355° North 157 181 8,000  Level Houston Center
04:45PM 30.6914 -95.9008 352° North 155 178 8,000  Level Houston Center
04:46PM 30.7431 -95.9072 354° North 153 176 8,000  Level Houston Center
04:47PM 30.7856 -95.9167 349° North 153 176 8,000  Level Houston Center
04:48PM 30.8367 -95.9231 354° North 153 176 8,000  Level Houston Center
04:49PM 30.8814 -95.9292 353° North 158 182 8,000  Level Houston Center
04:50PM 30.9236 -95.9356 353° North 154 177 8,000  Level Houston Center
04:51PM 30.9678 -95.9425 352° North 158 182 8,000  Level Houston Center
04:52PM 31.0094 -95.9500 351° North 153 176 8,000  Level Houston Center
04:53PM 31.0533 -95.9553 354° North 156 180 8,000  Level Houston Center
04:54PM 31.1053 -95.9647 351° North 157 181 8,000  Level Houston Center
04:55PM 31.1483 -95.9722 352° North 156 180 8,000  Level Houston Center
04:56PM 31.1906 -95.9822 349° North 154 177 8,000  Level Houston Center
04:57PM 31.2328 -95.9917 349° North 154 177 8,000  Level Houston Center
04:58PM 31.2747 -96.0022 348° North 153 176 8,000  Level Houston Center
04:59PM 31.3167 -96.0119 349° North 154 177 8,000  Level Houston Center
05:00PM 31.3686 -96.0231 350° North 157 181 8,000  Level Houston Center
05:01PM 31.4089 -96.0344 346° North 153 176 8,000  Level Houston Center
05:03PM 31.4531 -96.0439 350° North 156 180 8,000  Level Houston Center
05:04PM 31.4953 -96.0539 349° North 156 180 8,000  Level Houston Center
05:05PM 31.5378 -96.0639 349° North 155 178 8,000  Level Houston Center
05:06PM 31.5800 -96.0728 350° North 155 178 8,000 -420 Level Houston Center
05:07PM 31.6331 -96.0861 348° North 160 184 7,200 -480 Descending Houston Center
05:08PM 31.6725 -96.0958 348° North 165 190 7,100 -60 Descending Houston Center
05:09PM 31.7214 -96.1067 349° North 155 178 7,100  Level Houston Center
05:10PM 31.7644 -96.1161 349° North 155 178 7,100  Level Houston Center
05:11PM 31.8108 -96.1264 349° North 164 189 7,100  Level Houston Center
05:12PM 31.8533 -96.1386 346° North 159 183 7,100  Level Houston Center